createdAt,value
2023-04-27T00:02:39.997Z,100611.28
2023-04-27T00:05:43.073Z,100585.03
2023-04-27T00:08:45.518Z,100599.16
2023-04-27T00:11:48.171Z,100607.44
2023-04-27T00:14:50.771Z,100610.78
2023-04-27T00:17:53.565Z,100617.97
2023-04-27T00:20:55.978Z,100609.69
2023-04-27T00:23:58.568Z,100604.66
2023-04-27T00:27:01.735Z,100608.88
2023-04-27T00:30:05.258Z,100613.59
2023-04-27T00:33:08.820Z,100610.22
2023-04-27T00:36:11.484Z,100594.44
2023-04-27T00:39:14.033Z,100609.41
2023-04-27T00:42:19.616Z,100606.91
2023-04-27T00:45:22.211Z,100612.72
2023-04-27T00:48:25.015Z,100607.44
2023-04-27T00:51:30.298Z,100598.56
2023-04-27T00:54:33.503Z,100607.44
2023-04-27T00:57:35.889Z,100591.94
2023-04-27T01:00:40.361Z,100605.78
2023-04-27T01:03:42.869Z,100606.87
2023-04-27T01:06:45.991Z,100589.72
2023-04-27T01:09:48.345Z,100598.03
2023-04-27T01:12:51.247Z,100587.50
2023-04-27T01:15:53.583Z,100606.91
2023-04-27T01:18:56.450Z,100605.78
2023-04-27T01:21:59.424Z,100598.31
2023-04-27T01:25:02.022Z,100598.56
2023-04-27T01:28:06.497Z,100614.34
2023-04-27T01:31:11.827Z,100592.19
2023-04-27T01:34:14.210Z,100597.72
2023-04-27T01:37:16.829Z,100599.09
2023-04-27T01:40:19.399Z,100599.91
2023-04-27T01:43:22.629Z,100619.84
2023-04-27T01:46:25.041Z,100603.78
2023-04-27T01:49:27.777Z,100625.09
2023-04-27T01:52:31.730Z,100631.69
2023-04-27T01:55:34.435Z,100608.72
2023-04-27T01:58:37.177Z,100614.22
2023-04-27T02:01:39.871Z,100637.19
2023-04-27T02:04:43.583Z,100639.09
2023-04-27T02:07:46.188Z,100611.38
2023-04-27T02:10:48.928Z,100634.38
2023-04-27T02:13:52.373Z,100636.56
2023-04-27T02:16:55.111Z,100621.28
2023-04-27T02:19:58.314Z,100628.19
2023-04-27T02:23:02.362Z,100644.81
2023-04-27T02:26:05.072Z,100644.53
2023-04-27T02:29:07.579Z,100641.50
2023-04-27T02:32:11.823Z,100654.22
2023-04-27T02:35:14.293Z,100644.28
2023-04-27T02:38:17.182Z,100627.06
2023-04-27T02:41:19.817Z,100650.87
2023-04-27T02:44:22.181Z,100657.50
2023-04-27T02:47:26.873Z,100636.94
2023-04-27T02:50:29.297Z,100644.66
2023-04-27T02:53:31.911Z,100649.31
2023-04-27T02:56:34.222Z,100652.25
2023-04-27T02:59:36.948Z,100656.69
2023-04-27T03:02:39.558Z,100675.47
2023-04-27T03:05:42.238Z,100664.84
2023-04-27T03:08:44.647Z,100675.69
2023-04-27T03:11:47.244Z,100685.25
2023-04-27T03:14:49.549Z,100688.75
2023-04-27T03:17:53.462Z,100674.56
2023-04-27T03:21:12.014Z,100677.09
2023-04-27T03:24:14.702Z,100699.00
2023-04-27T03:27:18.285Z,100694.03
2023-04-27T03:30:20.945Z,100695.44
2023-04-27T03:33:23.436Z,100697.31
2023-04-27T03:36:27.085Z,100697.38
2023-04-27T03:39:29.440Z,100699.28
2023-04-27T03:42:32.077Z,100697.66
2023-04-27T03:45:34.417Z,100707.91
2023-04-27T03:48:37.205Z,100713.19
2023-04-27T03:51:42.321Z,100717.31
2023-04-27T03:54:45.017Z,100694.03
2023-04-27T03:57:47.425Z,100693.16
2023-04-27T04:00:50.137Z,100716.16
2023-04-27T04:03:52.901Z,100705.03
2023-04-27T04:06:55.571Z,100704.72
2023-04-27T04:09:58.693Z,100731.91
2023-04-27T04:13:01.062Z,100738.16
2023-04-27T04:16:05.963Z,100732.84
2023-04-27T04:19:08.777Z,100713.59
2023-04-27T04:22:12.042Z,100748.41
2023-04-27T04:25:14.695Z,100741.69
2023-04-27T04:28:17.313Z,100718.91
2023-04-27T04:31:21.683Z,100748.38
2023-04-27T04:34:24.776Z,100727.78
2023-04-27T04:37:27.838Z,100734.12
2023-04-27T04:40:30.986Z,100729.94
2023-04-27T04:43:33.405Z,100738.22
2023-04-27T04:46:37.455Z,100759.69
2023-04-27T04:49:39.979Z,100738.87
2023-04-27T04:52:43.192Z,100757.03
2023-04-27T04:55:45.624Z,100766.16
2023-04-27T04:58:49.293Z,100735.72
2023-04-27T05:01:55.600Z,100742.94
2023-04-27T05:04:58.343Z,100752.22
2023-04-27T05:08:00.821Z,100769.31
2023-04-27T05:11:03.550Z,100762.50
2023-04-27T05:14:05.906Z,100768.06
2023-04-27T05:17:08.737Z,100775.28
2023-04-27T05:20:11.685Z,100778.31
2023-04-27T05:23:14.328Z,100778.94
2023-04-27T05:26:18.455Z,100778.47
2023-04-27T05:29:22.042Z,100772.09
2023-04-27T05:32:24.537Z,100790.50
2023-04-27T05:35:27.107Z,100793.09
2023-04-27T05:38:29.465Z,100785.97
2023-04-27T05:41:32.336Z,100792.06
2023-04-27T05:44:34.733Z,100782.75
2023-04-27T05:47:37.467Z,100796.09
2023-04-27T05:50:40.105Z,100792.25
2023-04-27T05:53:42.795Z,100808.94
2023-04-27T05:56:45.164Z,100782.09
2023-04-27T05:59:47.895Z,100803.31
2023-04-27T06:02:50.402Z,100805.19
2023-04-27T06:05:58.763Z,100801.53
2023-04-27T06:09:02.300Z,100809.34
2023-04-27T06:12:06.633Z,100805.03
2023-04-27T06:15:09.939Z,100804.88
2023-04-27T06:18:13.189Z,100803.84
2023-04-27T06:21:15.498Z,100800.97
2023-04-27T06:24:18.470Z,100810.03
2023-04-27T06:27:20.784Z,100817.56
2023-04-27T06:30:26.760Z,100812.59
2023-04-27T06:33:29.147Z,100820.31
2023-04-27T06:36:31.761Z,100818.59
2023-04-27T06:39:34.255Z,100823.63
2023-04-27T06:42:37.272Z,100814.97
2023-04-27T06:45:40.093Z,100813.63
2023-04-27T06:48:42.813Z,100816.16
2023-04-27T06:51:46.696Z,100824.34
2023-04-27T06:54:49.386Z,100820.00
2023-04-27T06:57:51.795Z,100821.56
2023-04-27T07:00:54.569Z,100821.38
2023-04-27T07:03:57.672Z,100827.34
2023-04-27T07:07:00.436Z,100819.16
2023-04-27T07:10:02.889Z,100817.56
2023-04-27T07:13:08.827Z,100834.56
2023-04-27T07:16:11.738Z,100837.91
2023-04-27T07:19:14.605Z,100831.34
2023-04-27T07:22:18.011Z,100827.59
2023-04-27T07:25:21.621Z,100831.69
2023-04-27T07:28:23.945Z,100815.44
2023-04-27T07:31:26.830Z,100831.62
2023-04-27T07:34:35.068Z,100836.63
2023-04-27T07:37:45.545Z,100841.59
2023-04-27T07:40:47.943Z,100843.31
2023-04-27T07:43:51.835Z,100823.09
2023-04-27T07:46:54.793Z,100843.22
2023-04-27T07:49:57.835Z,100834.56
2023-04-27T07:53:00.744Z,100835.88
2023-04-27T07:56:06.032Z,100820.37
2023-04-27T07:59:08.426Z,100814.13
2023-04-27T08:02:19.861Z,100826.63
2023-04-27T08:05:23.775Z,100814.16
2023-04-27T08:08:26.476Z,100830.53
2023-04-27T08:11:29.279Z,100832.78
2023-04-27T08:14:34.674Z,100823.09
2023-04-27T08:17:40.493Z,100810.56
2023-04-27T08:20:42.831Z,100827.44
2023-04-27T08:23:45.436Z,100824.47
2023-04-27T08:26:48.476Z,100833.75
2023-04-27T08:29:51.632Z,100835.72
2023-04-27T08:32:55.764Z,100832.22
2023-04-27T08:35:58.465Z,100843.59
2023-04-27T08:39:00.943Z,100819.63
2023-04-27T08:42:13.926Z,100832.56
2023-04-27T08:45:16.526Z,100823.56
2023-04-27T08:48:20.447Z,100834.88
2023-04-27T08:51:24.255Z,100838.78
2023-04-27T08:54:27.254Z,100834.63
2023-04-27T08:57:29.612Z,100813.34
2023-04-27T09:00:42.343Z,100833.25
2023-04-27T09:03:46.973Z,100824.97
2023-04-27T09:06:49.868Z,100820.31
2023-04-27T09:10:03.642Z,100815.47
2023-04-27T09:13:06.601Z,100820.81
2023-04-27T09:16:09.294Z,100816.31
2023-04-27T09:19:12.246Z,100811.19
2023-04-27T09:22:15.596Z,100807.16
2023-04-27T09:25:28.059Z,100807.25
2023-04-27T09:28:32.398Z,100807.63
2023-04-27T09:31:36.127Z,100797.25
2023-04-27T09:34:40.769Z,100785.47
2023-04-27T09:37:43.963Z,100804.84
2023-04-27T09:40:47.054Z,100810.31
2023-04-27T09:43:50.642Z,100793.28
2023-04-27T09:46:53.695Z,100796.56
2023-04-27T09:49:59.706Z,100770.09
2023-04-27T09:53:02.976Z,100777.28
2023-04-27T09:56:28.517Z,100776.69
2023-04-27T09:59:40.044Z,100790.78
2023-04-27T10:06:32.404Z,100761.94
2023-04-27T10:09:46.384Z,100773.53
2023-04-27T10:13:01.902Z,100770.16
2023-04-27T10:16:17.224Z,100760.97
2023-04-27T10:19:21.745Z,100763.69
2023-04-27T10:22:25.012Z,100777.97
2023-04-27T10:25:41.601Z,100764.78
2023-04-27T10:28:45.520Z,100774.44
2023-04-27T10:31:48.999Z,100770.69
2023-04-27T10:35:02.386Z,100770.16
2023-04-27T10:38:10.119Z,100745.75
2023-04-27T10:41:15.507Z,100745.59
2023-04-27T10:44:20.685Z,100763.41
2023-04-27T10:47:24.509Z,100766.34
2023-04-27T10:50:28.158Z,100749.00
2023-04-27T10:53:36.096Z,100762.75
2023-04-27T10:56:38.744Z,100776.53
2023-04-27T10:59:52.520Z,100767.78
2023-04-27T11:02:57.290Z,100750.09
2023-04-27T11:06:02.287Z,100758.97
2023-04-27T11:09:06.523Z,100768.81
2023-04-27T11:12:12.172Z,100755.25
2023-04-27T11:15:15.003Z,100755.81
2023-04-27T11:18:19.797Z,100748.75
2023-04-27T11:21:23.154Z,100734.59
2023-04-27T11:24:25.505Z,100740.66
2023-04-27T11:27:40.733Z,100754.94
2023-04-27T11:30:43.132Z,100746.34
2023-04-27T11:33:49.504Z,100745.41
2023-04-27T11:37:17.514Z,100749.31
2023-04-27T11:40:22.651Z,100741.84
2023-04-27T11:43:27.668Z,100728.44
2023-04-27T11:46:30.806Z,100720.09
2023-04-27T11:49:33.652Z,100734.81
2023-04-27T11:52:38.192Z,100737.75
2023-04-27T11:55:41.553Z,100745.16
2023-04-27T11:58:46.457Z,100739.09
2023-04-27T12:01:49.334Z,100726.16
2023-04-27T12:04:52.312Z,100732.41
2023-04-27T12:07:54.846Z,100742.19
2023-04-27T12:10:57.462Z,100737.59
2023-04-27T12:13:59.889Z,100732.97
2023-04-27T12:17:03.081Z,100746.63
2023-04-27T12:20:06.474Z,100746.22
2023-04-27T12:23:09.197Z,100742.22
2023-04-27T12:26:14.249Z,100738.66
2023-04-27T12:29:18.039Z,100737.22
2023-04-27T12:32:20.508Z,100721.00
2023-04-27T12:35:23.280Z,100745.31
2023-04-27T12:38:25.584Z,100727.34
2023-04-27T12:41:28.323Z,100724.72
2023-04-27T12:44:30.769Z,100729.13
2023-04-27T12:47:50.356Z,100717.47
2023-04-27T12:50:57.673Z,100732.09
2023-04-27T12:54:02.177Z,100731.66
2023-04-27T12:57:06.584Z,100724.25
2023-04-27T13:00:13.525Z,100724.50
2023-04-27T13:03:16.290Z,100726.88
2023-04-27T13:06:22.921Z,100732.44
2023-04-27T13:09:25.613Z,100737.44
2023-04-27T13:12:28.698Z,100734.63
2023-04-27T13:15:31.731Z,100725.19
2023-04-27T13:18:35.030Z,100722.22
2023-04-27T13:21:38.174Z,100724.53
2023-04-27T13:24:42.133Z,100731.31
2023-04-27T13:27:44.489Z,100728.84
2023-04-27T13:30:48.874Z,100732.63
2023-04-27T13:33:51.295Z,100737.25
2023-04-27T13:36:54.129Z,100724.19
2023-04-27T13:39:56.532Z,100725.72
2023-04-27T13:42:59.234Z,100726.62
2023-04-27T13:46:02.979Z,100713.97
2023-04-27T13:49:06.609Z,100724.19
2023-04-27T13:52:09.914Z,100708.28
2023-04-27T13:55:12.820Z,100724.87
2023-04-27T13:58:15.812Z,100722.41
2023-04-27T14:01:18.617Z,100721.53
2023-04-27T14:04:21.452Z,100715.09
2023-04-27T14:07:23.924Z,100719.22
2023-04-27T14:10:26.765Z,100717.28
2023-04-27T14:13:29.487Z,100719.28
2023-04-27T14:16:32.316Z,100709.69
2023-04-27T14:19:34.725Z,100728.81
2023-04-27T14:22:37.755Z,100738.09
2023-04-27T14:25:40.356Z,100733.97
2023-04-27T14:28:43.081Z,100742.72
2023-04-27T14:31:46.016Z,100720.75
2023-04-27T14:34:49.421Z,100732.81
2023-04-27T14:37:52.606Z,100740.56
2023-04-27T14:40:56.277Z,100738.41
2023-04-27T14:43:59.426Z,100735.59
2023-04-27T14:47:02.599Z,100740.91
2023-04-27T14:50:06.036Z,100738.41
2023-04-27T14:53:09.065Z,100735.69
2023-04-27T14:56:12.471Z,100727.00
2023-04-27T14:59:15.497Z,100727.84
2023-04-27T15:02:18.879Z,100728.50
2023-04-27T15:05:21.619Z,100739.56
2023-04-27T15:08:24.037Z,100731.03
2023-04-27T15:11:26.827Z,100740.62
2023-04-27T15:14:29.376Z,100733.22
2023-04-27T15:17:32.452Z,100728.47
2023-04-27T15:20:35.394Z,100740.47
2023-04-27T15:23:38.557Z,100738.03
2023-04-27T15:26:42.235Z,100736.84
2023-04-27T15:29:45.553Z,100741.94
2023-04-27T15:32:48.578Z,100747.16
2023-04-27T15:35:51.680Z,100748.22
2023-04-27T15:38:54.778Z,100744.50
2023-04-27T15:41:59.687Z,100741.75
2023-04-27T15:45:02.174Z,100747.25
2023-04-27T15:48:05.014Z,100729.41
2023-04-27T15:51:10.097Z,100747.72
2023-04-27T15:54:14.130Z,100725.00
2023-04-27T15:57:18.506Z,100739.16
2023-04-27T16:00:22.544Z,100739.69
2023-04-27T16:03:25.655Z,100752.88
2023-04-27T16:06:33.354Z,100724.97
2023-04-27T16:09:36.750Z,100740.53
2023-04-27T16:12:39.179Z,100747.41
2023-04-27T16:15:41.770Z,100725.22
2023-04-27T16:18:44.568Z,100743.03
2023-04-27T16:21:47.555Z,100741.97
2023-04-27T16:24:50.601Z,100750.44
2023-04-27T16:27:53.242Z,100749.09
2023-04-27T16:30:56.144Z,100742.09
2023-04-27T16:33:58.760Z,100758.41
2023-04-27T16:37:01.907Z,100753.50
2023-04-27T16:40:07.774Z,100762.19
2023-04-27T16:43:10.199Z,100765.87
2023-04-27T16:46:14.656Z,100765.50
2023-04-27T16:49:17.379Z,100744.75
2023-04-27T16:52:21.068Z,100745.78
2023-04-27T16:55:23.494Z,100762.06
2023-04-27T16:58:26.460Z,100764.03
2023-04-27T17:01:30.180Z,100773.69
2023-04-27T17:04:35.572Z,100753.31
2023-04-27T17:07:38.437Z,100759.53
2023-04-27T17:10:42.116Z,100757.69
2023-04-27T17:13:44.529Z,100771.41
2023-04-27T17:16:47.908Z,100774.44
2023-04-27T17:19:50.233Z,100778.59
2023-04-27T17:22:52.945Z,100773.41
2023-04-27T17:25:56.057Z,100773.19
2023-04-27T17:29:01.302Z,100762.37
2023-04-27T17:32:04.598Z,100760.19
2023-04-27T17:35:07.530Z,100785.25
2023-04-27T17:38:11.230Z,100770.13
2023-04-27T17:41:13.917Z,100787.41
2023-04-27T17:44:16.658Z,100773.75
2023-04-27T17:47:20.573Z,100787.50
2023-04-27T17:50:24.562Z,100784.28
2023-04-27T17:53:27.553Z,100804.59
2023-04-27T17:56:29.899Z,100799.69
2023-04-27T17:59:33.112Z,100810.03
2023-04-27T18:02:35.707Z,100809.00
2023-04-27T18:05:38.609Z,100808.78
2023-04-27T18:08:41.273Z,100802.75
2023-04-27T18:11:44.012Z,100819.44
2023-04-27T18:14:46.501Z,100823.16
2023-04-27T18:17:49.413Z,100799.41
2023-04-27T18:20:52.521Z,100824.69
2023-04-27T18:23:56.281Z,100806.28
2023-04-27T18:27:00.068Z,100823.47
2023-04-27T18:30:03.888Z,100826.84
2023-04-27T18:33:06.345Z,100833.16
2023-04-27T18:36:09.116Z,100820.03
2023-04-27T18:39:11.822Z,100836.09
2023-04-27T18:42:14.512Z,100825.84
2023-04-27T18:45:17.054Z,100842.00
2023-04-27T18:48:20.097Z,100829.25
2023-04-27T18:51:26.079Z,100846.66
2023-04-27T18:54:29.056Z,100841.38
2023-04-27T18:57:31.895Z,100834.63
2023-04-27T19:00:35.222Z,100852.25
2023-04-27T19:03:37.683Z,100854.22
2023-04-27T19:06:40.891Z,100843.81
2023-04-27T19:09:43.315Z,100847.84
2023-04-27T19:12:46.031Z,100860.53
2023-04-27T19:15:48.526Z,100870.00
2023-04-27T19:18:51.466Z,100848.84
2023-04-27T19:21:54.744Z,100869.72
2023-04-27T19:24:57.410Z,100871.03
2023-04-27T19:28:00.572Z,100859.09
2023-04-27T19:31:03.904Z,100866.78
2023-04-27T19:34:06.301Z,100887.09
2023-04-27T19:37:08.970Z,100893.84
2023-04-27T19:40:12.067Z,100872.19
2023-04-27T19:43:14.981Z,100872.19
2023-04-27T19:46:17.468Z,100891.37
2023-04-27T19:49:20.268Z,100885.53
2023-04-27T19:52:23.320Z,100881.16
2023-04-27T19:55:26.326Z,100880.91
2023-04-27T19:58:29.172Z,100884.00
2023-04-27T20:01:32.517Z,100886.75
2023-04-27T20:04:35.768Z,100877.63
2023-04-27T20:07:38.370Z,100868.53
2023-04-27T20:10:42.065Z,100886.41
2023-04-27T20:13:44.405Z,100865.41
2023-04-27T20:16:47.893Z,100886.81
2023-04-27T20:19:50.249Z,100887.91
2023-04-27T20:22:52.897Z,100884.87
2023-04-27T20:25:55.860Z,100874.72
2023-04-27T20:28:59.071Z,100892.16
2023-04-27T20:32:02.544Z,100876.06
2023-04-27T20:35:10.432Z,100897.13
2023-04-27T20:38:13.315Z,100891.03
2023-04-27T20:41:16.126Z,100898.03
2023-04-27T20:44:20.758Z,100868.94
2023-04-27T20:47:23.428Z,100882.28
2023-04-27T20:50:26.460Z,100903.62
2023-04-27T20:53:29.255Z,100898.91
2023-04-27T20:56:32.967Z,100902.78
2023-04-27T20:59:35.622Z,100905.28
2023-04-27T21:02:38.012Z,100904.78
2023-04-27T21:05:41.755Z,100884.84
2023-04-27T21:08:44.236Z,100915.66
2023-04-27T21:11:46.925Z,100903.16
2023-04-27T21:14:49.276Z,100909.31
2023-04-27T21:17:52.009Z,100913.81
2023-04-27T21:20:54.892Z,100913.78
2023-04-27T21:24:07.253Z,100921.87
2023-04-27T21:27:11.513Z,100914.66
2023-04-27T21:30:15.331Z,100919.97
2023-04-27T21:33:18.140Z,100929.38
2023-04-27T21:36:21.154Z,100907.19
2023-04-27T21:39:23.513Z,100919.97
2023-04-27T21:42:26.402Z,100933.03
2023-04-27T21:45:28.978Z,100932.19
2023-04-27T21:48:31.600Z,100931.91
2023-04-27T21:51:34.799Z,100934.44
2023-04-27T21:54:37.474Z,100931.66
2023-04-27T21:57:40.109Z,100937.19
2023-04-27T22:00:42.813Z,100918.94
2023-04-27T22:03:45.791Z,100925.31
2023-04-27T22:06:48.863Z,100947.78
2023-04-27T22:09:51.506Z,100928.09
2023-04-27T22:12:53.810Z,100931.16
2023-04-27T22:15:56.486Z,100945.28
2023-04-27T22:18:59.762Z,100951.38
2023-04-27T22:22:02.463Z,100938.06
2023-04-27T22:25:05.231Z,100951.69
2023-04-27T22:28:07.867Z,100950.00
2023-04-27T22:31:10.444Z,100935.59
2023-04-27T22:34:13.590Z,100953.38
2023-04-27T22:37:16.124Z,100935.34
2023-04-27T22:40:18.791Z,100958.66
2023-04-27T22:43:21.074Z,100954.19
2023-04-27T22:46:23.795Z,100960.03
2023-04-27T22:49:26.274Z,100968.34
2023-04-27T22:52:33.655Z,100949.50
2023-04-27T22:55:36.059Z,100960.56
2023-04-27T22:58:38.618Z,100958.91
2023-04-27T23:01:40.971Z,100942.28
2023-04-27T23:04:43.889Z,100965.59
2023-04-27T23:07:46.474Z,100969.44
2023-04-27T23:10:49.182Z,100953.34
2023-04-27T23:13:51.510Z,100966.41
2023-04-27T23:16:56.366Z,100972.50
2023-04-27T23:20:00.254Z,100964.47
2023-04-27T23:23:02.832Z,100968.63
2023-04-27T23:26:15.159Z,100949.75
2023-04-27T23:29:17.799Z,100956.13
2023-04-27T23:32:20.715Z,100972.50
2023-04-27T23:35:23.346Z,100978.91
2023-04-27T23:38:25.679Z,100961.69
2023-04-27T23:41:28.354Z,100954.19
2023-04-27T23:44:30.787Z,100970.56
2023-04-27T23:47:33.917Z,100973.34
2023-04-27T23:50:36.486Z,100945.03
2023-04-27T23:53:39.140Z,100949.75
2023-04-27T23:56:41.474Z,100973.88
2023-04-27T23:59:44.128Z,100962.78
